Time;durP1;ratioP1;P1;durP2;ratioP2;P2;SDS_P1;SDS_P2;PMS_P1;PMS_P2;Temp;Humidity;BMP_temperature;BMP_pressure;BME280_temperature;BME280_humidity;BME280_pressure;Samples;Min_cycle;Max_cycle;Signal;HPM_P1;HPM_P2
2021/09/04 00:00:24;;;;;;;16.13;9.38;;;;;;;11.47;100.00;101095.28;5038344;28;20048;-80
2021/09/04 00:02:51;;;;;;;14.43;9.50;;;;;;;11.43;100.00;101090.94;5037314;28;20040;-79
2021/09/04 00:05:18;;;;;;;13.45;9.80;;;;;;;11.41;100.00;101088.31;5056606;28;20075;-82
2021/09/04 00:07:45;;;;;;;14.32;10.30;;;;;;;11.59;100.00;101086.25;5023666;28;20045;-82
2021/09/04 00:10:12;;;;;;;14.73;9.68;;;;;;;11.57;100.00;101087.16;5047333;28;20048;-83
2021/09/04 00:12:40;;;;;;;13.75;10.20;;;;;;;11.51;100.00;101081.97;5032108;28;20047;-81
2021/09/04 00:15:07;;;;;;;15.85;9.95;;;;;;;11.49;100.00;101075.81;5051841;28;20418;-82
2021/09/04 00:17:34;;;;;;;15.73;9.80;;;;;;;11.48;100.00;101073.22;5025661;28;20032;-82
2021/09/04 00:20:01;;;;;;;17.52;9.88;;;;;;;11.49;100.00;101075.81;5039244;28;20078;-81
2021/09/04 00:22:28;;;;;;;13.88;9.43;;;;;;;11.42;100.00;101079.47;5018584;28;20044;-80
2021/09/04 00:24:54;;;;;;;16.33;9.43;;;;;;;11.30;100.00;101071.75;5038525;28;20567;-81
2021/09/04 00:27:21;;;;;;;15.48;9.23;;;;;;;11.31;100.00;101067.34;5034977;28;20048;-81
2021/09/04 00:29:48;;;;;;;13.48;8.95;;;;;;;11.32;100.00;101074.38;5022186;28;20032;-81
2021/09/04 00:32:16;;;;;;;16.05;9.82;;;;;;;11.20;100.00;101081.63;5021482;28;20213;-80
2021/09/04 00:34:43;;;;;;;15.38;10.23;;;;;;;11.19;100.00;101076.38;5054534;28;20152;-82
2021/09/04 00:37:09;;;;;;;15.13;10.90;;;;;;;11.03;100.00;101081.03;5052302;28;20056;-80
2021/09/04 00:39:36;;;;;;;14.27;9.05;;;;;;;11.08;100.00;101079.16;5038026;28;20055;-82
2021/09/04 00:42:03;;;;;;;13.57;9.32;;;;;;;10.98;100.00;101074.91;5037564;28;20044;-82
2021/09/04 00:44:30;;;;;;;15.48;10.15;;;;;;;10.99;100.00;101074.03;5037975;28;20032;-81
2021/09/04 00:47:04;;;;;;;13.93;9.35;;;;;;;10.90;100.00;101075.03;5037052;28;20036;-81
2021/09/04 00:49:35;;;;;;;18.20;10.63;;;;;;;10.84;100.00;101067.19;5028861;28;20791;-82
2021/09/04 00:52:05;;;;;;;14.70;9.55;;;;;;;10.89;100.00;101073.28;5021146;28;20041;-79
2021/09/04 00:54:34;;;;;;;14.32;9.57;;;;;;;10.77;100.00;101076.13;5037629;28;20075;-79
2021/09/04 00:57:01;;;;;;;13.85;9.73;;;;;;;10.69;100.00;101076.25;5027281;28;20056;-80
2021/09/04 00:59:28;;;;;;;13.73;9.35;;;;;;;10.66;100.00;101078.03;5020985;28;20569;-83
2021/09/04 01:02:14;;;;;;;12.05;8.40;;;;;;;10.55;100.00;101078.19;5029678;28;20049;-81
2021/09/04 01:04:41;;;;;;;13.60;8.95;;;;;;;10.52;100.00;101078.25;5037159;28;20047;-80
2021/09/04 01:07:07;;;;;;;16.85;10.20;;;;;;;10.59;100.00;101082.53;5035975;28;20051;-84
2021/09/04 01:09:34;;;;;;;12.20;8.90;;;;;;;10.47;100.00;101087.13;5017779;28;20060;-83
2021/09/04 01:12:02;;;;;;;14.52;9.05;;;;;;;10.46;100.00;101086.25;5035605;28;20480;-81
2021/09/04 01:14:28;;;;;;;14.60;9.48;;;;;;;10.45;100.00;101091.56;5020873;28;20041;-81
2021/09/04 01:16:55;;;;;;;13.23;9.10;;;;;;;10.45;100.00;101092.44;5028082;28;20108;-80
2021/09/04 01:19:22;;;;;;;13.45;9.15;;;;;;;10.46;100.00;101080.09;5016700;28;20037;-84
2021/09/04 01:21:48;;;;;;;13.98;9.55;;;;;;;10.53;100.00;101087.03;5051862;28;20444;-81
2021/09/04 01:24:15;;;;;;;15.50;8.63;;;;;;;10.55;100.00;101078.19;5020159;28;20123;-80
2021/09/04 01:26:42;;;;;;;15.13;8.65;;;;;;;10.62;100.00;101073.69;5054221;28;20047;-81
2021/09/04 01:29:08;;;;;;;16.55;9.80;;;;;;;10.71;100.00;101077.09;5039455;28;20055;-81
2021/09/04 01:31:35;;;;;;;13.35;8.30;;;;;;;10.74;100.00;101075.28;5036127;28;20592;-80
2021/09/04 01:34:02;;;;;;;13.05;9.20;;;;;;;10.70;100.00;101077.97;5034902;28;20044;-81
2021/09/04 01:36:35;;;;;;;16.58;9.63;;;;;;;10.70;100.00;101070.06;5037337;28;20041;-80
2021/09/04 01:39:04;;;;;;;14.23;9.45;;;;;;;10.71;100.00;101074.44;5032682;28;20037;-81
2021/09/04 01:41:31;;;;;;;16.50;8.57;;;;;;;10.68;100.00;101076.28;5024197;28;20044;-85
2021/09/04 01:43:58;;;;;;;17.83;9.45;;;;;;;10.71;100.00;101069.16;5069147;28;20047;-80
2021/09/04 01:46:29;;;;;;;13.30;9.15;;;;;;;10.78;100.00;101069.94;5053423;28;20098;-82
2021/09/04 01:49:00;;;;;;;11.60;9.18;;;;;;;10.75;100.00;101074.38;5049289;28;20040;-80
2021/09/04 01:51:27;;;;;;;13.25;8.90;;;;;;;10.70;100.00;101064.78;5029444;28;20136;-83
2021/09/04 01:53:53;;;;;;;13.15;9.25;;;;;;;10.69;100.00;101062.16;5035693;28;20536;-80
2021/09/04 01:56:20;;;;;;;13.77;8.70;;;;;;;10.68;100.00;101063.94;5053350;28;20044;-79
2021/09/04 01:58:47;;;;;;;14.40;8.32;;;;;;;10.64;100.00;101063.97;5016264;28;20516;-84
2021/09/04 02:01:14;;;;;;;14.07;9.35;;;;;;;10.61;100.00;101059.63;5030662;28;20044;-82
2021/09/04 02:03:41;;;;;;;11.80;8.65;;;;;;;10.51;100.00;101052.72;5034696;28;20083;-82
2021/09/04 02:06:08;;;;;;;12.88;8.45;;;;;;;10.53;100.00;101047.41;5019894;28;20056;-80
2021/09/04 02:08:35;;;;;;;13.75;8.30;;;;;;;10.46;100.00;101051.03;5029891;28;20137;-85
2021/09/04 02:11:02;;;;;;;12.90;8.43;;;;;;;10.47;100.00;101055.41;5003068;28;20044;-80
2021/09/04 02:13:29;;;;;;;13.50;9.07;;;;;;;10.50;100.00;101056.22;5051701;28;20045;-80
2021/09/04 02:15:56;;;;;;;13.40;8.48;;;;;;;10.47;100.00;101051.00;5037931;28;20493;-84
2021/09/04 02:18:23;;;;;;;15.32;8.88;;;;;;;10.40;100.00;101054.63;5027602;28;20639;-80
2021/09/04 02:20:50;;;;;;;11.77;8.85;;;;;;;10.49;100.00;101049.22;5030580;28;20108;-83
2021/09/04 02:23:16;;;;;;;14.65;8.48;;;;;;;10.49;100.00;101050.97;5050945;28;20098;-82
2021/09/04 02:25:43;;;;;;;12.98;8.93;;;;;;;10.48;100.00;101046.59;5048684;28;20037;-83
2021/09/04 02:28:11;;;;;;;12.00;8.63;;;;;;;10.40;100.00;101047.56;5024715;28;20405;-83
2021/09/04 02:30:37;;;;;;;11.25;8.35;;;;;;;10.39;100.00;101053.75;5043032;28;20045;-80
2021/09/04 02:33:04;;;;;;;12.63;8.20;;;;;;;10.42;100.00;101056.38;5053600;28;20040;-81
2021/09/04 02:35:31;;;;;;;12.55;9.50;;;;;;;10.39;100.00;101061.66;5028515;28;20127;-80
2021/09/04 02:37:58;;;;;;;14.05;8.52;;;;;;;10.39;100.00;101056.38;5020093;28;20501;-83
2021/09/04 02:40:25;;;;;;;14.93;8.80;;;;;;;10.40;100.00;101059.91;5033998;28;20119;-80
2021/09/04 02:42:51;;;;;;;15.50;9.50;;;;;;;10.37;100.00;101054.66;5020833;28;20049;-81
2021/09/04 02:45:18;;;;;;;14.90;9.15;;;;;;;10.28;100.00;101066.22;5054044;28;20048;-80
2021/09/04 02:47:45;;;;;;;13.02;9.38;;;;;;;10.37;100.00;101065.22;5018833;28;20039;-80
2021/09/04 02:50:11;;;;;;;12.98;8.65;;;;;;;10.43;100.00;101067.81;5018006;28;20378;-81
2021/09/04 02:52:38;;;;;;;12.98;8.70;;;;;;;10.37;100.00;101054.66;5018555;28;20046;-80
2021/09/04 02:55:05;;;;;;;12.85;8.63;;;;;;;10.48;100.00;101058.03;5019791;28;20513;-80
2021/09/04 02:57:33;;;;;;;13.65;9.10;;;;;;;10.47;100.00;101065.97;5035761;28;20044;-81
2021/09/04 03:00:00;;;;;;;12.35;8.82;;;;;;;10.41;100.00;101056.38;5051485;28;20048;-80
2021/09/04 03:02:27;;;;;;;12.38;8.93;;;;;;;10.45;100.00;101070.41;5033896;28;20120;-81
2021/09/04 03:04:54;;;;;;;11.65;8.73;;;;;;;10.51;100.00;101060.66;5019063;28;20048;-80
2021/09/04 03:07:20;;;;;;;14.30;8.88;;;;;;;10.48;100.00;101054.50;5017279;28;20045;-81
2021/09/04 03:09:47;;;;;;;11.20;7.78;;;;;;;10.47;100.00;101060.69;5046973;28;20108;-81
2021/09/04 03:12:14;;;;;;;13.27;8.30;;;;;;;10.41;100.00;101059.88;5048674;28;20170;-81
2021/09/04 03:14:41;;;;;;;13.40;8.27;;;;;;;10.36;100.00;101059.09;5025512;28;20040;-81
2021/09/04 03:17:07;;;;;;;16.00;8.60;;;;;;;10.47;100.00;101053.66;5029388;28;20049;-82
2021/09/04 03:19:34;;;;;;;13.82;8.40;;;;;;;10.56;100.00;101060.56;5050540;28;20040;-80
2021/09/04 03:22:04;;;;;;;11.35;9.15;;;;;;;10.53;100.00;101063.25;5017338;28;20057;-81
2021/09/04 03:24:30;;;;;;;13.13;9.23;;;;;;;10.43;100.00;101063.41;5034168;28;20036;-80
2021/09/04 03:26:57;;;;;;;12.40;8.48;;;;;;;10.43;100.00;101062.53;5043404;28;20675;-81
2021/09/04 03:29:24;;;;;;;11.85;8.80;;;;;;;10.38;100.00;101066.97;5050130;28;20608;-81
2021/09/04 03:31:50;;;;;;;11.77;7.45;;;;;;;10.32;100.00;101065.28;5033901;28;20036;-80
2021/09/04 03:34:17;;;;;;;12.82;8.60;;;;;;;10.32;100.00;101059.13;5016147;28;20056;-79
2021/09/04 03:36:44;;;;;;;12.25;9.43;;;;;;;10.29;100.00;101053.91;5043614;28;20037;-81
2021/09/04 03:39:11;;;;;;;12.70;8.25;;;;;;;10.27;100.00;101061.84;5028128;28;20405;-79
2021/09/04 03:41:37;;;;;;;12.02;7.53;;;;;;;10.25;100.00;101062.75;5033288;28;20041;-80
2021/09/04 03:44:04;;;;;;;13.38;8.30;;;;;;;10.29;100.00;101064.47;5049743;28;20060;-82
2021/09/04 03:46:32;;;;;;;14.57;8.23;;;;;;;10.32;100.00;101074.97;5033657;28;20036;-81
2021/09/04 03:49:02;;;;;;;14.63;9.60;;;;;;;10.39;100.00;101068.72;5033249;28;20106;-80
2021/09/04 03:51:32;;;;;;;13.90;8.63;;;;;;;10.43;100.00;101070.44;5035292;28;20131;-80
2021/09/04 03:53:59;;;;;;;17.52;8.82;;;;;;;10.43;100.00;101076.59;5032181;28;20052;-81
2021/09/04 03:56:26;;;;;;;12.75;8.63;;;;;;;10.49;100.00;101069.47;5034503;28;20071;-80
2021/09/04 03:58:53;;;;;;;11.02;7.20;;;;;;;10.47;100.00;101074.78;5049580;28;20041;-83
2021/09/04 04:01:20;;;;;;;11.60;8.35;;;;;;;10.51;100.00;101071.22;5032524;28;20048;-81
2021/09/04 04:03:47;;;;;;;12.40;8.55;;;;;;;10.50;100.00;101071.22;5020235;28;20068;-80
2021/09/04 04:06:14;;;;;;;17.08;9.88;;;;;;;10.58;100.00;101067.56;5049499;28;20283;-80
2021/09/04 04:08:40;;;;;;;16.15;8.88;;;;;;;10.62;100.00;101066.66;5041952;28;20049;-81
2021/09/04 04:11:09;;;;;;;11.60;7.82;;;;;;;10.61;100.00;101072.84;5053925;28;20041;-81
2021/09/04 04:13:36;;;;;;;12.38;8.18;;;;;;;10.64;100.00;101070.13;5030402;28;20063;-82
2021/09/04 04:16:03;;;;;;;14.45;8.93;;;;;;;10.66;100.00;101064.81;5044677;28;20128;-80
2021/09/04 04:18:33;;;;;;;13.57;8.20;;;;;;;10.60;100.00;101070.22;5038298;28;20044;-79
2021/09/04 04:21:01;;;;;;;12.38;8.55;;;;;;;10.56;100.00;101064.09;5035612;28;20497;-79
2021/09/04 04:23:27;;;;;;;13.13;8.25;;;;;;;10.62;100.00;101069.28;5044577;28;20037;-81
2021/09/04 04:25:54;;;;;;;11.88;7.68;;;;;;;10.65;100.00;101071.88;5067404;28;20444;-80
2021/09/04 04:28:21;;;;;;;12.32;7.90;;;;;;;10.62;100.00;101069.28;5049279;28;20049;-82
2021/09/04 04:30:48;;;;;;;11.85;8.25;;;;;;;10.59;100.00;101069.31;5036787;28;20123;-81
2021/09/04 04:33:14;;;;;;;10.18;7.07;;;;;;;10.56;100.00;101068.50;5054742;28;20406;-79
2021/09/04 04:35:41;;;;;;;11.93;7.90;;;;;;;10.58;100.00;101066.69;5039465;28;20044;-82
2021/09/04 04:38:08;;;;;;;12.02;8.15;;;;;;;10.65;100.00;101076.28;5034475;28;20102;-79
2021/09/04 04:40:35;;;;;;;12.57;8.25;;;;;;;10.71;100.00;101065.66;5026116;28;20069;-81
2021/09/04 04:43:02;;;;;;;13.02;7.80;;;;;;;10.68;100.00;101070.97;5039737;28;20033;-81
2021/09/04 04:45:29;;;;;;;11.25;7.78;;;;;;;10.65;100.00;101082.44;5036825;28;20091;-80
2021/09/04 04:47:56;;;;;;;12.90;8.18;;;;;;;10.61;100.00;101078.13;5017178;28;20041;-83
2021/09/04 04:50:22;;;;;;;12.70;7.93;;;;;;;10.62;100.00;101079.84;5037307;28;20044;-82
2021/09/04 04:52:49;;;;;;;11.73;8.15;;;;;;;10.69;100.00;101089.44;5030089;28;20047;-82
2021/09/04 04:55:16;;;;;;;15.65;8.60;;;;;;;10.78;100.00;101083.16;5031656;28;20684;-83
2021/09/04 04:57:43;;;;;;;11.75;7.78;;;;;;;10.81;100.00;101075.19;5036691;28;20480;-82
2021/09/04 05:00:10;;;;;;;13.68;7.85;;;;;;;10.86;100.00;101076.00;5021385;28;20048;-82
2021/09/04 05:02:38;;;;;;;12.88;7.53;;;;;;;10.76;100.00;101087.56;5019867;28;20402;-82
2021/09/04 05:05:06;;;;;;;11.93;7.70;;;;;;;10.82;100.00;101091.91;5024080;28;20037;-82
2021/09/04 05:07:36;;;;;;;12.32;7.97;;;;;;;10.87;100.00;101085.66;5037093;28;20037;-82
2021/09/04 05:10:04;;;;;;;19.40;9.95;;;;;;;10.96;100.00;101096.09;5046862;28;20033;-80
2021/09/04 05:12:31;;;;;;;14.40;8.70;;;;;;;11.09;100.00;101088.84;5044785;28;20493;-78
2021/09/04 05:14:57;;;;;;;14.13;8.95;;;;;;;11.08;100.00;101092.38;5049859;28;20040;-78
2021/09/04 05:17:25;;;;;;;12.32;8.57;;;;;;;11.12;100.00;101099.38;5051262;28;20072;-82
2021/09/04 05:19:51;;;;;;;12.13;8.90;;;;;;;11.18;100.00;101090.47;5054241;28;20432;-80
2021/09/04 05:22:18;;;;;;;16.00;8.93;;;;;;;11.26;100.00;101089.44;5050052;28;20525;-79
2021/09/04 05:24:46;;;;;;;14.05;9.32;;;;;;;11.35;100.00;101093.72;5055776;28;20036;-79
2021/09/04 05:27:16;;;;;;;14.43;9.02;;;;;;;11.35;100.00;101087.53;5047101;28;20974;-81
2021/09/04 05:29:48;;;;;;;13.90;8.48;;;;;;;11.39;100.00;101094.53;5051303;28;20521;-79
2021/09/04 05:32:22;;;;;;;12.32;7.95;;;;;;;11.42;100.00;101094.47;5064088;28;20421;-79
2021/09/04 05:34:51;;;;;;;12.52;8.23;;;;;;;11.59;100.00;101089.75;5047936;28;20123;-78
2021/09/04 05:37:19;;;;;;;10.57;7.78;;;;;;;11.58;100.00;101090.66;5015197;28;20107;-79
2021/09/04 05:39:46;;;;;;;11.85;7.70;;;;;;;11.66;100.00;101093.19;5036291;28;20045;-82
2021/09/04 05:42:12;;;;;;;12.10;8.82;;;;;;;11.72;100.00;101093.94;5026775;28;20131;-78
2021/09/04 05:44:39;;;;;;;14.27;9.13;;;;;;;11.82;100.00;101092.91;5045985;22;20549;-81
2021/09/04 05:47:06;;;;;;;13.60;9.05;;;;;;;11.91;100.00;101090.97;5027565;28;20083;-83
2021/09/04 05:49:32;;;;;;;14.02;8.10;;;;;;;11.93;100.00;101084.75;5038385;28;20103;-82
2021/09/04 05:51:59;;;;;;;13.98;8.60;;;;;;;11.97;100.00;101088.22;5034288;28;20710;-82
2021/09/04 05:54:26;;;;;;;11.38;8.48;;;;;;;12.04;100.00;101089.84;5026711;28;20041;-82
2021/09/04 05:56:53;;;;;;;13.30;8.13;;;;;;;12.11;100.00;101080.91;5036616;28;20040;-83
2021/09/04 05:59:19;;;;;;;13.20;8.10;;;;;;;12.18;100.00;101079.84;5019856;28;20041;-82
2021/09/04 06:01:46;;;;;;;14.55;8.63;;;;;;;12.30;100.00;101071.66;5034668;28;20041;-81
2021/09/04 06:04:13;;;;;;;16.05;9.82;;;;;;;12.42;100.00;101077.59;5053336;28;20040;-84
2021/09/04 06:06:40;;;;;;;13.18;8.32;;;;;;;12.60;100.00;101074.53;5049332;28;20040;-83
2021/09/04 06:09:07;;;;;;;12.25;7.78;;;;;;;12.67;100.00;101077.03;5026751;28;20047;-81
2021/09/04 06:11:36;;;;;;;13.77;8.63;;;;;;;12.70;100.00;101077.88;5026698;28;20045;-82
2021/09/04 06:14:02;;;;;;;13.05;8.70;;;;;;;12.80;100.00;101079.41;5034335;28;20044;-80
2021/09/04 06:16:29;;;;;;;11.52;7.65;;;;;;;12.90;100.00;101073.84;5019205;28;20587;-83
2021/09/04 06:18:56;;;;;;;11.20;7.97;;;;;;;13.01;100.00;101084.19;5038387;28;20167;-83
2021/09/04 06:21:23;;;;;;;14.13;8.35;;;;;;;13.03;100.00;101086.81;5032547;28;20079;-82
2021/09/04 06:23:50;;;;;;;12.45;8.55;;;;;;;13.03;100.00;101090.38;5027580;28;20037;-80
2021/09/04 06:26:17;;;;;;;11.35;7.90;;;;;;;13.11;100.00;101085.72;5016247;28;20052;-82
2021/09/04 06:28:43;;;;;;;15.82;9.90;;;;;;;13.33;100.00;101099.38;5050796;28;20035;-83
2021/09/04 06:31:10;;;;;;;12.07;8.18;;;;;;;13.31;100.00;101087.94;5035737;28;20036;-83
2021/09/04 06:33:37;;;;;;;10.95;7.75;;;;;;;13.43;100.00;101097.34;5018441;28;20045;-83
2021/09/04 06:36:04;;;;;;;10.63;7.30;;;;;;;13.42;100.00;101088.53;5034062;28;20472;-82
2021/09/04 06:38:30;;;;;;;13.57;8.75;;;;;;;13.59;100.00;101092.53;5015315;28;20040;-82
2021/09/04 06:40:57;;;;;;;16.15;9.07;;;;;;;13.73;100.00;101099.22;5051429;28;20040;-81
2021/09/04 06:43:24;;;;;;;11.50;8.48;;;;;;;13.77;100.00;101094.69;5019502;28;20439;-82
2021/09/04 06:45:50;;;;;;;16.45;7.80;;;;;;;13.97;100.00;101089.72;5052210;28;20086;-83
2021/09/04 06:48:17;;;;;;;10.77;8.02;;;;;;;14.11;100.00;101093.78;5035161;28;20040;-81
2021/09/04 06:50:44;;;;;;;11.48;7.65;;;;;;;14.21;100.00;101093.50;5018345;28;20051;-82
2021/09/04 06:53:10;;;;;;;15.07;9.70;;;;;;;14.32;100.00;101090.53;5043349;28;20036;-83
2021/09/04 06:55:37;;;;;;;13.30;8.48;;;;;;;14.44;100.00;101090.16;5020939;28;20036;-82
2021/09/04 06:58:04;;;;;;;11.70;8.43;;;;;;;14.62;100.00;101100.25;5016892;28;20041;-85
2021/09/04 07:00:31;;;;;;;15.73;8.90;;;;;;;14.73;100.00;101099.09;5028255;28;20046;-83
2021/09/04 07:02:57;;;;;;;15.90;9.15;;;;;;;14.78;100.00;101100.66;5051238;28;20110;-81
2021/09/04 07:05:24;;;;;;;15.93;9.00;;;;;;;15.00;100.00;101095.56;5037463;28;20462;-83
2021/09/04 07:07:51;;;;;;;19.48;10.05;;;;;;;15.20;100.00;101105.56;5029294;28;20045;-85
2021/09/04 07:10:18;;;;;;;13.88;8.65;;;;;;;15.49;100.00;101096.63;5014108;28;20128;-82
2021/09/04 07:12:45;;;;;;;18.38;8.68;;;;;;;15.57;100.00;101099.91;5035114;28;20127;-84
2021/09/04 07:15:12;;;;;;;14.70;8.10;;;;;;;15.68;100.00;101094.22;5013306;28;20141;-82
2021/09/04 07:17:39;;;;;;;14.02;8.07;;;;;;;15.94;100.00;101098.63;5039123;28;20057;-82
2021/09/04 07:20:06;;;;;;;11.65;7.70;;;;;;;15.91;100.00;101098.75;5016646;28;20549;-83
2021/09/04 07:22:33;;;;;;;11.40;7.15;;;;;;;16.01;100.00;101098.38;5029791;28;20094;-82
2021/09/04 07:25:00;;;;;;;13.63;7.10;;;;;;;16.08;100.00;101103.47;5020325;28;20401;-81
2021/09/04 07:27:27;;;;;;;14.68;7.15;;;;;;;16.21;100.00;101113.63;5047465;28;20123;-83
2021/09/04 07:29:53;;;;;;;12.57;7.05;;;;;;;16.22;100.00;101112.69;5035563;28;20040;-81
2021/09/04 07:32:20;;;;;;;14.65;7.30;;;;;;;16.38;99.49;101121.00;5020626;28;20505;-80
2021/09/04 07:34:47;;;;;;;10.38;6.38;;;;;;;16.64;100.00;101116.47;5039296;28;20123;-80
2021/09/04 07:37:13;;;;;;;8.65;5.22;;;;;;;16.89;100.00;101117.31;5039078;28;20041;-81
2021/09/04 07:39:40;;;;;;;10.02;6.40;;;;;;;17.13;100.00;101116.31;5023094;28;20035;-82
2021/09/04 07:42:07;;;;;;;12.43;6.28;;;;;;;17.17;96.82;101122.44;5013582;28;20053;-80
2021/09/04 07:44:33;;;;;;;12.95;7.15;;;;;;;17.39;94.04;101127.75;5035471;28;20071;-81
2021/09/04 07:47:00;;;;;;;15.90;6.88;;;;;;;17.20;94.13;101122.28;5036432;28;20071;-84
2021/09/04 07:49:27;;;;;;;10.45;6.65;;;;;;;17.41;91.84;101121.44;5043933;28;20040;-84
2021/09/04 07:51:55;;;;;;;10.90;6.80;;;;;;;17.37;92.42;101125.16;5034395;28;20052;-84
2021/09/04 07:54:22;;;;;;;13.13;6.75;;;;;;;17.11;93.22;101128.00;5033279;28;20469;-81
2021/09/04 07:56:49;;;;;;;13.60;7.60;;;;;;;17.09;93.23;101116.53;5055352;28;20045;-82
2021/09/04 07:59:16;;;;;;;11.63;6.80;;;;;;;17.15;95.93;101114.50;5032317;28;20127;-85
2021/09/04 08:01:42;;;;;;;12.25;6.55;;;;;;;17.23;95.09;101121.28;5030322;28;20043;-84
2021/09/04 08:04:09;;;;;;;11.25;6.88;;;;;;;17.36;92.89;101120.75;5019538;28;20044;-84
2021/09/04 08:06:36;;;;;;;13.95;6.68;;;;;;;17.28;94.59;101128.19;5020810;28;20040;-83
2021/09/04 08:09:06;;;;;;;9.00;6.15;;;;;;;17.48;94.70;101131.84;5038010;28;20041;-81
2021/09/04 08:11:35;;;;;;;12.00;7.18;;;;;;;17.57;93.04;101127.00;5040682;28;20051;-82
2021/09/04 08:14:02;;;;;;;12.32;8.05;;;;;;;17.71;92.18;101119.28;5038056;28;20053;-82
2021/09/04 08:16:28;;;;;;;13.23;7.20;;;;;;;17.61;89.10;101123.25;5011022;28;20101;-84
2021/09/04 08:18:55;;;;;;;10.35;7.45;;;;;;;17.79;90.20;101118.09;5030631;28;20118;-84
2021/09/04 08:21:22;;;;;;;10.13;7.13;;;;;;;17.72;91.61;101126.38;5052080;28;20037;-81
2021/09/04 08:23:49;;;;;;;14.77;8.23;;;;;;;17.80;90.79;101127.84;5036037;28;20524;-85
2021/09/04 08:26:15;;;;;;;11.13;7.35;;;;;;;17.76;90.94;101124.44;5039380;28;20447;-85
2021/09/04 08:28:42;;;;;;;11.10;7.50;;;;;;;17.95;91.66;101121.84;5016761;28;20037;-84
2021/09/04 08:31:09;;;;;;;11.07;6.70;;;;;;;17.99;91.39;101129.69;5034945;28;20040;-83
2021/09/04 08:33:35;;;;;;;12.90;6.65;;;;;;;17.80;89.55;101131.38;5021561;28;20040;-85
2021/09/04 08:36:02;;;;;;;11.40;7.38;;;;;;;17.87;90.83;101132.00;5038710;28;20097;-84
2021/09/04 08:38:29;;;;;;;12.45;6.65;;;;;;;17.93;91.10;101137.97;5022323;28;20060;-84
2021/09/04 08:40:56;;;;;;;15.68;8.32;;;;;;;17.99;89.52;101139.47;5038035;28;20504;-84
2021/09/04 08:43:22;;;;;;;13.70;7.57;;;;;;;17.88;88.49;101145.28;5036648;28;20434;-83
2021/09/04 08:45:49;;;;;;;17.77;7.82;;;;;;;17.73;88.06;101141.47;5035992;28;20136;-84
2021/09/04 08:48:19;;;;;;;12.65;8.02;;;;;;;17.88;90.30;101141.75;5018580;28;20048;-84
2021/09/04 08:50:46;;;;;;;13.23;7.68;;;;;;;17.95;87.96;101138.75;5020637;28;20127;-85
2021/09/04 08:53:13;;;;;;;10.57;7.45;;;;;;;18.15;90.04;101140.53;5044912;28;20056;-84
2021/09/04 08:55:40;;;;;;;11.70;7.20;;;;;;;18.53;84.22;101138.81;5008154;28;20056;-83
2021/09/04 08:58:08;;;;;;;15.00;7.47;;;;;;;18.68;86.36;101144.47;5034835;28;20073;-85
2021/09/04 09:00:38;;;;;;;18.73;8.75;;;;;;;18.53;81.91;101146.84;5033927;28;20398;-83
2021/09/04 09:03:06;;;;;;;17.23;8.07;;;;;;;18.88;82.27;101149.72;5021118;28;20481;-85
2021/09/04 09:05:38;;;;;;;11.98;7.10;;;;;;;19.19;80.95;101141.09;5036632;28;20045;-85
2021/09/04 09:08:05;;;;;;;14.23;8.73;;;;;;;19.26;78.72;101136.31;5054608;28;20044;-83
2021/09/04 09:10:36;;;;;;;13.43;7.22;;;;;;;19.27;80.65;101146.97;5035323;28;20037;-84
2021/09/04 09:13:04;;;;;;;13.90;7.28;;;;;;;19.47;78.30;101145.09;5020146;28;20560;-83
2021/09/04 09:15:36;;;;;;;12.68;6.95;;;;;;;19.67;79.88;101148.56;5038450;28;20052;-85
2021/09/04 09:18:10;;;;;;;24.15;8.65;;;;;;;19.70;79.18;101154.72;5036993;28;20498;-86
2021/09/04 09:20:39;;;;;;;15.30;7.32;;;;;;;19.79;76.00;101148.88;5037788;28;20051;-83
2021/09/04 09:23:06;;;;;;;10.80;6.75;;;;;;;19.93;75.78;101154.41;5037753;28;20051;-84
2021/09/04 09:25:34;;;;;;;17.35;7.95;;;;;;;20.21;73.57;101160.06;5022992;28;20041;-85
2021/09/04 09:28:18;;;;;;;9.40;6.40;;;;;;;20.23;74.26;101158.16;5025644;28;20044;-84
2021/09/04 09:30:47;;;;;;;11.70;7.15;;;;;;;20.16;75.62;101161.25;5030638;28;20037;-84
2021/09/04 09:33:15;;;;;;;14.00;7.55;;;;;;;20.07;71.16;101151.00;5036049;28;20049;-84
2021/09/04 09:35:44;;;;;;;10.23;7.07;;;;;;;20.04;72.98;101152.03;5055444;28;20516;-82
2021/09/04 09:38:12;;;;;;;13.70;7.78;;;;;;;20.35;73.50;101153.13;5027009;28;20048;-84
2021/09/04 09:40:40;;;;;;;11.02;7.43;;;;;;;20.47;70.70;101152.47;5020244;28;20075;-81
2021/09/04 09:43:22;;;;;;;11.50;7.63;;;;;;;20.58;69.18;101150.06;5033735;28;21630;-82
2021/09/04 09:45:50;;;;;;;12.50;7.15;;;;;;;20.67;70.38;101133.47;5044047;28;20543;-81
2021/09/04 09:48:18;;;;;;;16.05;7.57;;;;;;;20.71;70.44;101142.22;5053812;28;20045;-82
2021/09/04 09:50:46;;;;;;;12.40;7.00;;;;;;;20.86;67.59;101141.38;5030346;28;20063;-84
2021/09/04 09:53:13;;;;;;;14.45;7.80;;;;;;;20.87;68.61;101145.81;5043607;28;20049;-84
2021/09/04 09:55:47;;;;;;;10.90;6.43;;;;;;;21.03;69.42;101138.63;5024881;28;20048;-84
2021/09/04 09:58:14;;;;;;;12.70;7.10;;;;;;;21.18;64.03;101144.06;5024815;28;20068;-85
2021/09/04 10:00:42;;;;;;;11.75;6.65;;;;;;;21.24;64.99;101146.41;5018002;28;20045;-83
2021/09/04 10:03:10;;;;;;;10.15;6.72;;;;;;;21.29;64.31;101147.06;5054537;28;20056;-82
2021/09/04 10:05:37;;;;;;;12.18;8.25;;;;;;;21.49;61.03;101143.19;5015863;28;20049;-81
2021/09/04 10:08:05;;;;;;;10.10;6.80;;;;;;;21.50;61.70;101136.88;5024153;28;20052;-82
2021/09/04 10:10:34;;;;;;;11.95;7.18;;;;;;;21.65;62.22;101138.66;5030530;28;20044;-81
2021/09/04 10:13:02;;;;;;;10.52;7.07;;;;;;;21.88;64.06;101135.47;5044700;28;20091;-81
2021/09/04 10:15:32;;;;;;;11.35;7.57;;;;;;;21.99;62.79;101147.41;5033049;28;20074;-83
2021/09/04 10:18:00;;;;;;;10.88;7.90;;;;;;;22.05;58.71;101138.97;5026713;28;20044;-83
2021/09/04 10:20:28;;;;;;;11.85;8.07;;;;;;;21.84;59.50;101143.81;5012428;28;20040;-82
2021/09/04 10:23:20;;;;;;;11.80;7.85;;;;;;;21.55;58.28;101143.72;5009422;28;20047;-83
2021/09/04 10:25:48;;;;;;;11.45;8.20;;;;;;;21.57;57.58;101143.63;5028856;28;20043;-84
2021/09/04 10:28:15;;;;;;;18.90;7.95;;;;;;;21.26;58.01;101139.97;5026393;28;20051;-82
2021/09/04 10:30:45;;;;;;;11.07;7.63;;;;;;;21.23;59.38;101137.47;5010593;28;20075;-82
2021/09/04 10:33:16;;;;;;;11.32;7.85;;;;;;;21.16;62.57;101144.16;5010808;28;20033;-83
2021/09/04 10:35:51;;;;;;;11.15;7.20;;;;;;;21.10;61.73;101152.53;5037350;28;20052;-82
2021/09/04 10:38:18;;;;;;;13.27;7.60;;;;;;;21.02;64.61;101142.25;5030262;28;20141;-83
2021/09/04 10:40:47;;;;;;;10.50;7.47;;;;;;;20.97;65.21;101148.84;5056217;28;20048;-82
2021/09/04 10:43:14;;;;;;;18.77;7.47;;;;;;;20.60;65.18;101145.50;5028271;28;20040;-83
2021/09/04 10:45:47;;;;;;;8.63;5.95;;;;;;;20.58;67.36;101150.06;5017330;28;20045;-83
2021/09/04 10:48:14;;;;;;;10.55;6.05;;;;;;;20.69;68.51;101142.31;5027032;28;20513;-82
2021/09/04 10:50:41;;;;;;;10.55;6.15;;;;;;;20.71;67.60;101144.91;5014700;28;20040;-82
2021/09/04 10:53:08;;;;;;;11.82;6.07;;;;;;;20.66;66.59;101142.47;5014180;28;20045;-83
2021/09/04 10:55:41;;;;;;;9.98;5.68;;;;;;;21.07;68.01;101139.31;5031190;28;20444;-83
2021/09/04 10:58:20;;;;;;;8.68;5.50;;;;;;;21.22;68.33;101143.81;5029737;28;20444;-80
2021/09/04 11:00:48;;;;;;;11.48;6.38;;;;;;;20.80;64.19;101136.34;5027736;28;20037;-81
2021/09/04 11:03:23;;;;;;;8.75;6.50;;;;;;;20.95;63.35;101140.88;5012859;28;20041;-82
2021/09/04 11:05:56;;;;;;;10.23;6.82;;;;;;;21.07;63.12;101137.47;5029759;28;20048;-81
2021/09/04 11:08:33;;;;;;;11.40;7.47;;;;;;;21.37;63.80;101143.94;5053642;28;20047;-81
2021/09/04 11:11:19;;;;;;;10.70;6.22;;;;;;;21.60;62.17;101141.59;5069097;28;20043;-80
2021/09/04 11:13:53;;;;;;;13.07;7.18;;;;;;;21.57;60.79;101141.78;5053631;28;20052;-81